sensor_id;sensor_type;location;lat;lon;timestamp;pressure;altitude;pressure_sealevel;temperature;humidity
46756;BME280;32506;52.826;-1.192;2023-06-22T00:01:58;101141.03;;;20.03;44.48
46756;BME280;32506;52.826;-1.192;2023-06-22T00:04:24;101138.28;;;19.98;44.29
46756;BME280;32506;52.826;-1.192;2023-06-22T00:06:49;101143.44;;;19.94;44.32
46756;BME280;32506;52.826;-1.192;2023-06-22T00:09:14;101141.22;;;19.91;44.24
46756;BME280;32506;52.826;-1.192;2023-06-22T00:11:40;101129.53;;;19.86;44.43
46756;BME280;32506;52.826;-1.192;2023-06-22T00:14:05;101134.41;;;19.84;44.32
46756;BME280;32506;52.826;-1.192;2023-06-22T00:16:34;101125.13;;;19.79;44.14
46756;BME280;32506;52.826;-1.192;2023-06-22T00:19:00;101129.44;;;19.75;44.30
46756;BME280;32506;52.826;-1.192;2023-06-22T00:21:27;101122.09;;;19.71;44.45
46756;BME280;32506;52.826;-1.192;2023-06-22T00:23:53;101137.25;;;19.67;44.24
46756;BME280;32506;52.826;-1.192;2023-06-22T00:26:19;101135.31;;;19.62;44.28
46756;BME280;32506;52.826;-1.192;2023-06-22T00:28:44;101135.81;;;19.59;44.45
46756;BME280;32506;52.826;-1.192;2023-06-22T00:31:10;101140.13;;;19.55;44.30
46756;BME280;32506;52.826;-1.192;2023-06-22T00:33:35;101149.59;;;19.52;44.33
46756;BME280;32506;52.826;-1.192;2023-06-22T00:36:01;101146.84;;;19.47;44.38
46756;BME280;32506;52.826;-1.192;2023-06-22T00:38:28;101152.78;;;19.44;44.49
46756;BME280;32506;52.826;-1.192;2023-06-22T00:40:53;101151.66;;;19.40;44.43
46756;BME280;32506;52.826;-1.192;2023-06-22T00:43:19;101157.63;;;19.37;44.29
46756;BME280;32506;52.826;-1.192;2023-06-22T00:45:44;101150.25;;;19.32;44.42
46756;BME280;32506;52.826;-1.192;2023-06-22T00:48:12;101150.75;;;19.29;44.25
46756;BME280;32506;52.826;-1.192;2023-06-22T00:50:37;101143.16;;;19.26;44.31
46756;BME280;32506;52.826;-1.192;2023-06-22T00:53:07;101143.66;;;19.23;44.36
46756;BME280;32506;52.826;-1.192;2023-06-22T00:55:43;101154.75;;;19.21;44.32
46756;BME280;32506;52.826;-1.192;2023-06-22T00:58:11;101151.19;;;19.16;44.21
46756;BME280;32506;52.826;-1.192;2023-06-22T01:00:37;101153.56;;;19.12;44.21
46756;BME280;32506;52.826;-1.192;2023-06-22T01:03:04;101160.31;;;19.09;44.13
46756;BME280;32506;52.826;-1.192;2023-06-22T01:05:31;101158.41;;;19.05;44.08
46756;BME280;32506;52.826;-1.192;2023-06-22T01:11:07;101160.25;;;18.99;44.24
46756;BME280;32506;52.826;-1.192;2023-06-22T01:16:08;101158.53;;;18.93;44.34
46756;BME280;32506;52.826;-1.192;2023-06-22T01:18:40;101160.69;;;18.91;44.32
46756;BME280;32506;52.826;-1.192;2023-06-22T01:21:07;101160.34;;;18.87;44.51
46756;BME280;32506;52.826;-1.192;2023-06-22T01:26:28;101170.31;;;18.82;44.41
46756;BME280;32506;52.826;-1.192;2023-06-22T01:29:00;101171.63;;;18.79;44.33
46756;BME280;32506;52.826;-1.192;2023-06-22T01:31:28;101176.72;;;18.75;44.22
46756;BME280;32506;52.826;-1.192;2023-06-22T01:34:05;101178.91;;;18.73;44.24
46756;BME280;32506;52.826;-1.192;2023-06-22T01:36:32;101187.50;;;18.70;44.26
46756;BME280;32506;52.826;-1.192;2023-06-22T01:38:59;101178.81;;;18.68;44.25
46756;BME280;32506;52.826;-1.192;2023-06-22T01:41:26;101182.00;;;18.65;44.20
46756;BME280;32506;52.826;-1.192;2023-06-22T01:43:53;101179.81;;;18.62;44.06
46756;BME280;32506;52.826;-1.192;2023-06-22T01:46:20;101185.75;;;18.59;44.46
46756;BME280;32506;52.826;-1.192;2023-06-22T01:48:47;101186.25;;;18.56;44.11
46756;BME280;32506;52.826;-1.192;2023-06-22T01:51:13;101186.50;;;18.54;44.04
46756;BME280;32506;52.826;-1.192;2023-06-22T01:53:39;101186.19;;;18.51;44.03
46756;BME280;32506;52.826;-1.192;2023-06-22T01:56:04;101186.44;;;18.49;43.97
46756;BME280;32506;52.826;-1.192;2023-06-22T01:58:31;101186.94;;;18.46;44.16
46756;BME280;32506;52.826;-1.192;2023-06-22T02:01:24;101188.84;;;18.45;44.09
46756;BME280;32506;52.826;-1.192;2023-06-22T02:04:03;101187.13;;;18.39;44.03
46756;BME280;32506;52.826;-1.192;2023-06-22T02:06:36;101191.13;;;18.37;44.29
46756;BME280;32506;52.826;-1.192;2023-06-22T02:09:08;101189.75;;;18.34;44.01
46756;BME280;32506;52.826;-1.192;2023-06-22T02:11:36;101195.41;;;18.33;44.19
46756;BME280;32506;52.826;-1.192;2023-06-22T02:14:02;101188.88;;;18.28;44.17
46756;BME280;32506;52.826;-1.192;2023-06-22T02:16:30;101191.03;;;18.26;44.33
46756;BME280;32506;52.826;-1.192;2023-06-22T02:18:56;101190.69;;;18.23;44.32
46756;BME280;32506;52.826;-1.192;2023-06-22T02:21:23;101196.34;;;18.21;44.44
46756;BME280;32506;52.826;-1.192;2023-06-22T02:23:48;101196.84;;;18.18;44.16
46756;BME280;32506;52.826;-1.192;2023-06-22T02:26:16;101194.63;;;18.15;44.52
46756;BME280;32506;52.826;-1.192;2023-06-22T02:28:42;101197.03;;;18.11;44.45
46756;BME280;32506;52.826;-1.192;2023-06-22T02:31:07;101201.84;;;18.09;44.35
46756;BME280;32506;52.826;-1.192;2023-06-22T02:33:33;101198.81;;;18.06;44.09
46756;BME280;32506;52.826;-1.192;2023-06-22T02:35:58;101198.28;;;18.04;44.40
46756;BME280;32506;52.826;-1.192;2023-06-22T02:38:24;101206.84;;;18.01;44.57
46756;BME280;32506;52.826;-1.192;2023-06-22T02:40:50;101208.19;;;17.98;44.36
46756;BME280;32506;52.826;-1.192;2023-06-22T02:43:15;101201.38;;;17.96;44.51
46756;BME280;32506;52.826;-1.192;2023-06-22T02:45:41;101208.13;;;17.93;44.18
46756;BME280;32506;52.826;-1.192;2023-06-22T02:48:06;101206.69;;;17.90;44.33
46756;BME280;32506;52.826;-1.192;2023-06-22T02:50:32;101209.06;;;17.87;44.46
46756;BME280;32506;52.826;-1.192;2023-06-22T02:52:57;101204.97;;;17.84;44.30
46756;BME280;32506;52.826;-1.192;2023-06-22T02:55:23;101201.91;;;17.81;44.18
46756;BME280;32506;52.826;-1.192;2023-06-22T02:57:49;101203.00;;;17.80;44.25
46756;BME280;32506;52.826;-1.192;2023-06-22T03:00:18;101197.50;;;17.74;44.25
46756;BME280;32506;52.826;-1.192;2023-06-22T03:02:46;101191.50;;;17.72;44.03
46756;BME280;32506;52.826;-1.192;2023-06-22T03:05:12;101195.53;;;17.70;44.21
46756;BME280;32506;52.826;-1.192;2023-06-22T03:07:43;101196.03;;;17.67;44.30
46756;BME280;32506;52.826;-1.192;2023-06-22T03:10:09;101195.47;;;17.65;43.89
46756;BME280;32506;52.826;-1.192;2023-06-22T03:12:39;101191.63;;;17.60;43.97
46756;BME280;32506;52.826;-1.192;2023-06-22T03:15:10;101189.97;;;17.59;44.15
46756;BME280;32506;52.826;-1.192;2023-06-22T03:17:36;101186.13;;;17.55;43.88
46756;BME280;32506;52.826;-1.192;2023-06-22T03:20:03;101194.69;;;17.52;43.80
46756;BME280;32506;52.826;-1.192;2023-06-22T03:22:36;101179.78;;;17.50;43.76
46756;BME280;32506;52.826;-1.192;2023-06-22T03:25:02;101191.09;;;17.47;43.85
46756;BME280;32506;52.826;-1.192;2023-06-22T03:27:28;101192.41;;;17.44;43.82
46756;BME280;32506;52.826;-1.192;2023-06-22T03:29:53;101195.59;;;17.41;44.16
46756;BME280;32506;52.826;-1.192;2023-06-22T03:32:19;101195.00;;;17.39;43.84
46756;BME280;32506;52.826;-1.192;2023-06-22T03:34:44;101190.09;;;17.36;43.79
46756;BME280;32506;52.826;-1.192;2023-06-22T03:37:13;101193.88;;;17.35;43.79
46756;BME280;32506;52.826;-1.192;2023-06-22T03:39:40;101192.72;;;17.31;43.68
46756;BME280;32506;52.826;-1.192;2023-06-22T03:42:06;101192.41;;;17.27;43.71
46756;BME280;32506;52.826;-1.192;2023-06-22T03:44:31;101194.25;;;17.26;43.70
46756;BME280;32506;52.826;-1.192;2023-06-22T03:46:57;101194.75;;;17.23;43.67
46756;BME280;32506;52.826;-1.192;2023-06-22T03:49:22;101197.09;;;17.20;43.44
46756;BME280;32506;52.826;-1.192;2023-06-22T03:51:47;101200.88;;;17.19;43.70
46756;BME280;32506;52.826;-1.192;2023-06-22T03:54:13;101200.31;;;17.17;43.81
46756;BME280;32506;52.826;-1.192;2023-06-22T03:56:38;101202.41;;;17.15;43.64
46756;BME280;32506;52.826;-1.192;2023-06-22T03:59:04;101205.59;;;17.11;43.80
46756;BME280;32506;52.826;-1.192;2023-06-22T04:01:29;101207.50;;;17.11;43.64
46756;BME280;32506;52.826;-1.192;2023-06-22T04:03:55;101208.78;;;17.08;43.57
46756;BME280;32506;52.826;-1.192;2023-06-22T04:06:20;101209.03;;;17.07;43.71
46756;BME280;32506;52.826;-1.192;2023-06-22T04:08:46;101206.56;;;17.05;43.82
46756;BME280;32506;52.826;-1.192;2023-06-22T04:11:17;101202.25;;;17.04;43.66
46756;BME280;32506;52.826;-1.192;2023-06-22T04:13:43;101199.78;;;17.03;43.41
46756;BME280;32506;52.826;-1.192;2023-06-22T04:16:08;101198.94;;;17.02;43.11
46756;BME280;32506;52.826;-1.192;2023-06-22T04:18:34;101198.38;;;17.00;43.18
46756;BME280;32506;52.826;-1.192;2023-06-22T04:20:59;101199.44;;;16.99;43.42
46756;BME280;32506;52.826;-1.192;2023-06-22T04:23:25;101194.03;;;16.99;43.56
46756;BME280;32506;52.826;-1.192;2023-06-22T04:25:50;101195.91;;;16.99;43.47
46756;BME280;32506;52.826;-1.192;2023-06-22T04:28:19;101196.97;;;16.98;43.30
46756;BME280;32506;52.826;-1.192;2023-06-22T04:30:44;101194.28;;;16.98;43.14
46756;BME280;32506;52.826;-1.192;2023-06-22T04:33:16;101199.09;;;16.96;43.37
46756;BME280;32506;52.826;-1.192;2023-06-22T04:35:44;101205.31;;;16.96;43.36
46756;BME280;32506;52.826;-1.192;2023-06-22T04:38:13;101199.34;;;16.94;42.92
46756;BME280;32506;52.826;-1.192;2023-06-22T04:40:41;101202.03;;;16.94;43.29
46756;BME280;32506;52.826;-1.192;2023-06-22T04:43:06;101199.56;;;16.92;43.20
46756;BME280;32506;52.826;-1.192;2023-06-22T04:45:32;101196.88;;;16.92;43.48
46756;BME280;32506;52.826;-1.192;2023-06-22T04:47:58;101202.28;;;16.92;43.31
46756;BME280;32506;52.826;-1.192;2023-06-22T04:50:24;101204.13;;;16.92;43.52
46756;BME280;32506;52.826;-1.192;2023-06-22T04:52:50;101210.38;;;16.92;43.59
46756;BME280;32506;52.826;-1.192;2023-06-22T04:55:16;101213.06;;;16.92;43.60
46756;BME280;32506;52.826;-1.192;2023-06-22T04:57:48;101209.53;;;16.92;43.37
46756;BME280;32506;52.826;-1.192;2023-06-22T05:00:23;101210.94;;;16.94;43.65
46756;BME280;32506;52.826;-1.192;2023-06-22T05:02:49;101210.13;;;16.94;43.77
46756;BME280;32506;52.826;-1.192;2023-06-22T05:05:15;101211.78;;;16.95;43.86
46756;BME280;32506;52.826;-1.192;2023-06-22T05:07:44;101203.44;;;16.97;44.00
46756;BME280;32506;52.826;-1.192;2023-06-22T05:10:11;101207.53;;;16.99;43.89
46756;BME280;32506;52.826;-1.192;2023-06-22T05:12:38;101206.47;;;17.00;43.93
46756;BME280;32506;52.826;-1.192;2023-06-22T05:15:05;101214.34;;;17.02;44.08
46756;BME280;32506;52.826;-1.192;2023-06-22T05:17:30;101218.44;;;17.04;44.18
46756;BME280;32506;52.826;-1.192;2023-06-22T05:19:56;101221.69;;;17.06;44.22
46756;BME280;32506;52.826;-1.192;2023-06-22T05:22:21;101219.34;;;17.10;44.27
46756;BME280;32506;52.826;-1.192;2023-06-22T05:24:47;101220.75;;;17.13;44.75
46756;BME280;32506;52.826;-1.192;2023-06-22T05:27:13;101219.44;;;17.15;44.88
46756;BME280;32506;52.826;-1.192;2023-06-22T05:29:39;101225.16;;;17.19;44.50
46756;BME280;32506;52.826;-1.192;2023-06-22T05:32:05;101219.06;;;17.23;44.53
46756;BME280;32506;52.826;-1.192;2023-06-22T05:34:31;101219.41;;;17.27;44.70
46756;BME280;32506;52.826;-1.192;2023-06-22T05:36:57;101224.06;;;17.32;44.65
46756;BME280;32506;52.826;-1.192;2023-06-22T05:39:24;101225.22;;;17.36;45.00
46756;BME280;32506;52.826;-1.192;2023-06-22T05:41:51;101226.97;;;17.42;45.45
46756;BME280;32506;52.826;-1.192;2023-06-22T05:44:16;101232.47;;;17.47;45.73
46756;BME280;32506;52.826;-1.192;2023-06-22T05:46:43;101235.22;;;17.52;45.97
46756;BME280;32506;52.826;-1.192;2023-06-22T05:49:13;101231.56;;;17.58;46.17
46756;BME280;32506;52.826;-1.192;2023-06-22T05:51:39;101233.31;;;17.65;46.53
46756;BME280;32506;52.826;-1.192;2023-06-22T05:54:05;101226.66;;;17.72;46.63
46756;BME280;32506;52.826;-1.192;2023-06-22T05:56:31;101231.91;;;17.79;46.72
46756;BME280;32506;52.826;-1.192;2023-06-22T05:58:56;101229.03;;;17.86;46.99
46756;BME280;32506;52.826;-1.192;2023-06-22T06:01:22;101234.91;;;17.94;47.13
46756;BME280;32506;52.826;-1.192;2023-06-22T06:03:47;101242.00;;;18.01;47.01
46756;BME280;32506;52.826;-1.192;2023-06-22T06:06:15;101235.63;;;18.07;47.21
46756;BME280;32506;52.826;-1.192;2023-06-22T06:08:41;101237.34;;;18.13;47.25
46756;BME280;32506;52.826;-1.192;2023-06-22T06:11:06;101244.22;;;18.21;47.37
46756;BME280;32506;52.826;-1.192;2023-06-22T06:13:32;101238.06;;;18.25;47.57
46756;BME280;32506;52.826;-1.192;2023-06-22T06:15:57;101239.75;;;18.32;47.37
46756;BME280;32506;52.826;-1.192;2023-06-22T06:18:24;101233.38;;;18.38;47.73
46756;BME280;32506;52.826;-1.192;2023-06-22T06:20:49;101242.97;;;18.45;47.92
46756;BME280;32506;52.826;-1.192;2023-06-22T06:23:15;101242.78;;;18.52;48.01
46756;BME280;32506;52.826;-1.192;2023-06-22T06:25:40;101238.81;;;18.60;48.21
46756;BME280;32506;52.826;-1.192;2023-06-22T06:28:06;101244.88;;;18.67;48.38
46756;BME280;32506;52.826;-1.192;2023-06-22T06:30:31;101254.19;;;18.76;48.76
46756;BME280;32506;52.826;-1.192;2023-06-22T06:32:57;101251.84;;;18.85;48.51
46756;BME280;32506;52.826;-1.192;2023-06-22T06:35:22;101249.56;;;18.94;48.81
46756;BME280;32506;52.826;-1.192;2023-06-22T06:37:49;101256.44;;;19.02;49.06
46756;BME280;32506;52.826;-1.192;2023-06-22T06:40:17;101259.00;;;19.14;49.05
46756;BME280;32506;52.826;-1.192;2023-06-22T06:42:45;101253.13;;;19.22;48.95
46756;BME280;32506;52.826;-1.192;2023-06-22T06:45:12;101257.84;;;19.32;49.19
46756;BME280;32506;52.826;-1.192;2023-06-22T06:47:38;101250.03;;;19.40;49.24
46756;BME280;32506;52.826;-1.192;2023-06-22T06:50:05;101261.00;;;19.51;49.21
46756;BME280;32506;52.826;-1.192;2023-06-22T06:52:31;101272.50;;;19.63;49.26
46756;BME280;32506;52.826;-1.192;2023-06-22T06:54:56;101270.97;;;19.72;49.21
46756;BME280;32506;52.826;-1.192;2023-06-22T06:57:22;101268.91;;;19.85;49.51
46756;BME280;32506;52.826;-1.192;2023-06-22T06:59:48;101260.63;;;19.97;49.48
46756;BME280;32506;52.826;-1.192;2023-06-22T07:02:15;101273.75;;;20.10;49.45
46756;BME280;32506;52.826;-1.192;2023-06-22T07:04:41;101277.06;;;20.22;49.69
46756;BME280;32506;52.826;-1.192;2023-06-22T07:07:07;101270.66;;;20.34;49.72
46756;BME280;32506;52.826;-1.192;2023-06-22T07:09:32;101268.56;;;20.46;49.44
46756;BME280;32506;52.826;-1.192;2023-06-22T07:11:57;101271.88;;;20.58;49.84
46756;BME280;32506;52.826;-1.192;2023-06-22T07:14:23;101266.84;;;20.72;49.67
46756;BME280;32506;52.826;-1.192;2023-06-22T07:16:49;101266.34;;;20.86;49.79
46756;BME280;32506;52.826;-1.192;2023-06-22T07:19:14;101268.56;;;20.99;49.79
46756;BME280;32506;52.826;-1.192;2023-06-22T07:21:40;101272.41;;;21.13;49.90
46756;BME280;32506;52.826;-1.192;2023-06-22T07:24:06;101273.81;;;21.26;50.16
46756;BME280;32506;52.826;-1.192;2023-06-22T07:26:32;101278.19;;;21.38;49.81
46756;BME280;32506;52.826;-1.192;2023-06-22T07:28:58;101268.69;;;21.51;49.43
46756;BME280;32506;52.826;-1.192;2023-06-22T07:31:26;101272.00;;;21.63;49.08
46756;BME280;32506;52.826;-1.192;2023-06-22T07:33:52;101268.22;;;21.74;49.33
46756;BME280;32506;52.826;-1.192;2023-06-22T07:36:18;101268.47;;;21.83;48.90
46756;BME280;32506;52.826;-1.192;2023-06-22T07:38:43;101270.66;;;21.91;48.58
46756;BME280;32506;52.826;-1.192;2023-06-22T07:41:09;101265.75;;;21.99;48.64
46756;BME280;32506;52.826;-1.192;2023-06-22T07:43:34;101265.22;;;22.07;48.03
46756;BME280;32506;52.826;-1.192;2023-06-22T07:46:03;101265.72;;;22.14;48.10
46756;BME280;32506;52.826;-1.192;2023-06-22T07:48:29;101257.84;;;22.23;47.96
46756;BME280;32506;52.826;-1.192;2023-06-22T07:50:55;101255.91;;;22.28;47.82
46756;BME280;32506;52.826;-1.192;2023-06-22T07:53:21;101255.38;;;22.37;47.83
46756;BME280;32506;52.826;-1.192;2023-06-22T07:55:47;101253.72;;;22.46;47.93
46756;BME280;32506;52.826;-1.192;2023-06-22T07:58:13;101247.72;;;22.54;47.56
46756;BME280;32506;52.826;-1.192;2023-06-22T08:00:38;101245.25;;;22.63;47.76
46756;BME280;32506;52.826;-1.192;2023-06-22T08:03:04;101249.03;;;22.72;47.73
46756;BME280;32506;52.826;-1.192;2023-06-22T08:05:30;101262.59;;;22.83;47.76
46756;BME280;32506;52.826;-1.192;2023-06-22T08:07:56;101257.66;;;22.90;46.90
46756;BME280;32506;52.826;-1.192;2023-06-22T08:10:22;101254.34;;;22.98;47.53
46756;BME280;32506;52.826;-1.192;2023-06-22T08:12:48;101256.19;;;23.08;47.75
46756;BME280;32506;52.826;-1.192;2023-06-22T08:15:13;101250.19;;;23.16;47.46
46756;BME280;32506;52.826;-1.192;2023-06-22T08:17:39;101255.59;;;23.26;47.48
46756;BME280;32506;52.826;-1.192;2023-06-22T08:20:08;101258.78;;;23.39;47.73
46756;BME280;32506;52.826;-1.192;2023-06-22T08:22:35;101262.25;;;23.50;47.61
46756;BME280;32506;52.826;-1.192;2023-06-22T08:25:02;101255.63;;;23.61;47.68
46756;BME280;32506;52.826;-1.192;2023-06-22T08:27:29;101260.44;;;23.74;47.75
46756;BME280;32506;52.826;-1.192;2023-06-22T08:29:57;101259.78;;;23.88;47.68
46756;BME280;32506;52.826;-1.192;2023-06-22T08:32:24;101261.88;;;24.01;47.61
46756;BME280;32506;52.826;-1.192;2023-06-22T08:34:52;101256.31;;;24.11;47.53
46756;BME280;32506;52.826;-1.192;2023-06-22T08:37:18;101267.66;;;24.24;47.19
46756;BME280;32506;52.826;-1.192;2023-06-22T08:39:43;101262.09;;;24.34;47.02
46756;BME280;32506;52.826;-1.192;2023-06-22T08:42:09;101268.78;;;24.47;47.25
46756;BME280;32506;52.826;-1.192;2023-06-22T08:44:34;101261.00;;;24.59;47.37
46756;BME280;32506;52.826;-1.192;2023-06-22T08:47:00;101269.31;;;24.73;47.41
46756;BME280;32506;52.826;-1.192;2023-06-22T08:49:25;101254.94;;;24.87;47.01
46756;BME280;32506;52.826;-1.192;2023-06-22T08:51:51;101256.66;;;25.02;47.06
46756;BME280;32506;52.826;-1.192;2023-06-22T08:54:18;101263.03;;;25.16;47.29
46756;BME280;32506;52.826;-1.192;2023-06-22T08:56:44;101259.78;;;25.33;47.25
46756;BME280;32506;52.826;-1.192;2023-06-22T08:59:09;101268.59;;;25.49;47.46
46756;BME280;32506;52.826;-1.192;2023-06-22T09:01:35;101264.22;;;25.67;47.24
46756;BME280;32506;52.826;-1.192;2023-06-22T09:04:00;101257.88;;;25.86;47.20
46756;BME280;32506;52.826;-1.192;2023-06-22T09:06:26;101255.41;;;26.03;47.44
46756;BME280;32506;52.826;-1.192;2023-06-22T09:08:51;101260.81;;;26.22;47.35
46756;BME280;32506;52.826;-1.192;2023-06-22T09:11:17;101262.66;;;26.41;46.97
46756;BME280;32506;52.826;-1.192;2023-06-22T09:13:42;101258.50;;;26.57;47.40
46756;BME280;32506;52.826;-1.192;2023-06-22T09:16:08;101257.31;;;26.77;47.08
46756;BME280;32506;52.826;-1.192;2023-06-22T09:18:34;101265.41;;;26.96;46.97
46756;BME280;32506;52.826;-1.192;2023-06-22T09:20:59;101263.00;;;27.18;46.39
46756;BME280;32506;52.826;-1.192;2023-06-22T09:23:25;101255.75;;;27.36;46.76
46756;BME280;32506;52.826;-1.192;2023-06-22T09:25:50;101261.56;;;27.57;46.50
46756;BME280;32506;52.826;-1.192;2023-06-22T09:28:16;101263.31;;;27.75;45.68
46756;BME280;32506;52.826;-1.192;2023-06-22T09:30:43;101270.22;;;27.95;45.86
46756;BME280;32506;52.826;-1.192;2023-06-22T09:33:09;101273.63;;;28.15;45.81
46756;BME280;32506;52.826;-1.192;2023-06-22T09:35:35;101270.63;;;28.34;45.98
46756;BME280;32506;52.826;-1.192;2023-06-22T09:38:00;101268.44;;;28.54;45.55
46756;BME280;32506;52.826;-1.192;2023-06-22T09:40:26;101269.00;;;28.73;45.43
46756;BME280;32506;52.826;-1.192;2023-06-22T09:42:51;101276.97;;;28.92;44.82
46756;BME280;32506;52.826;-1.192;2023-06-22T09:45:17;101278.28;;;29.12;45.21
46756;BME280;32506;52.826;-1.192;2023-06-22T09:47:42;101275.56;;;29.30;45.26
46756;BME280;32506;52.826;-1.192;2023-06-22T09:50:08;101283.19;;;29.51;44.96
46756;BME280;32506;52.826;-1.192;2023-06-22T09:52:34;101287.22;;;29.71;44.49
46756;BME280;32506;52.826;-1.192;2023-06-22T09:54:59;101286.88;;;29.90;44.29
46756;BME280;32506;52.826;-1.192;2023-06-22T09:57:25;101284.53;;;30.09;44.06
46756;BME280;32506;52.826;-1.192;2023-06-22T09:59:50;101285.78;;;30.29;43.93
46756;BME280;32506;52.826;-1.192;2023-06-22T10:02:15;101289.47;;;30.51;43.85
46756;BME280;32506;52.826;-1.192;2023-06-22T10:04:42;101278.47;;;30.72;43.81
46756;BME280;32506;52.826;-1.192;2023-06-22T10:07:07;101278.50;;;30.93;43.70
46756;BME280;32506;52.826;-1.192;2023-06-22T10:09:38;101293.16;;;31.15;43.23
46756;BME280;32506;52.826;-1.192;2023-06-22T10:12:07;101293.59;;;31.38;43.30
46756;BME280;32506;52.826;-1.192;2023-06-22T10:14:35;101291.16;;;31.58;42.79
46756;BME280;32506;52.826;-1.192;2023-06-22T10:17:02;101288.41;;;31.79;42.53
46756;BME280;32506;52.826;-1.192;2023-06-22T10:19:27;101288.31;;;32.00;42.29
46756;BME280;32506;52.826;-1.192;2023-06-22T10:21:53;101285.06;;;32.19;42.11
46756;BME280;32506;52.826;-1.192;2023-06-22T10:24:19;101283.44;;;32.43;41.17
46756;BME280;32506;52.826;-1.192;2023-06-22T10:26:44;101290.84;;;32.63;40.67
46756;BME280;32506;52.826;-1.192;2023-06-22T10:29:10;101287.94;;;32.85;40.54
46756;BME280;32506;52.826;-1.192;2023-06-22T10:31:35;101291.25;;;33.03;40.33
46756;BME280;32506;52.826;-1.192;2023-06-22T10:34:00;101292.47;;;33.18;40.07
46756;BME280;32506;52.826;-1.192;2023-06-22T10:36:26;101282.91;;;33.27;39.35
46756;BME280;32506;52.826;-1.192;2023-06-22T10:38:51;101287.59;;;33.39;39.25
46756;BME280;32506;52.826;-1.192;2023-06-22T10:41:18;101288.25;;;33.49;39.03
46756;BME280;32506;52.826;-1.192;2023-06-22T10:43:44;101293.72;;;33.61;38.86
46756;BME280;32506;52.826;-1.192;2023-06-22T10:46:09;101299.56;;;33.72;38.44
46756;BME280;32506;52.826;-1.192;2023-06-22T10:48:34;101293.53;;;33.82;38.29
46756;BME280;32506;52.826;-1.192;2023-06-22T10:51:00;101294.19;;;33.91;38.53
46756;BME280;32506;52.826;-1.192;2023-06-22T10:53:25;101297.59;;;34.01;38.15
46756;BME280;32506;52.826;-1.192;2023-06-22T10:55:54;101287.94;;;34.10;38.15
46756;BME280;32506;52.826;-1.192;2023-06-22T10:58:19;101292.13;;;34.20;37.76
46756;BME280;32506;52.826;-1.192;2023-06-22T11:00:45;101295.19;;;34.31;38.05
46756;BME280;32506;52.826;-1.192;2023-06-22T11:03:10;101294.66;;;34.41;37.83
46756;BME280;32506;52.826;-1.192;2023-06-22T11:05:37;101297.31;;;34.54;37.42
46756;BME280;32506;52.826;-1.192;2023-06-22T11:08:02;101295.63;;;34.65;37.11
46756;BME280;32506;52.826;-1.192;2023-06-22T11:10:28;101290.75;;;34.78;37.27
46756;BME280;32506;52.826;-1.192;2023-06-22T11:12:53;101285.91;;;34.91;37.09
46756;BME280;32506;52.826;-1.192;2023-06-22T11:15:20;101283.78;;;35.04;36.83
46756;BME280;32506;52.826;-1.192;2023-06-22T11:17:46;101288.03;;;35.17;36.73
46756;BME280;32506;52.826;-1.192;2023-06-22T11:20:11;101286.72;;;35.31;36.76
46756;BME280;32506;52.826;-1.192;2023-06-22T11:22:40;101290.66;;;35.45;36.99
46756;BME280;32506;52.826;-1.192;2023-06-22T11:25:07;101275.75;;;35.57;36.61
46756;BME280;32506;52.826;-1.192;2023-06-22T11:27:33;101282.41;;;35.72;36.44
46756;BME280;32506;52.826;-1.192;2023-06-22T11:29:58;101279.84;;;35.83;36.05
46756;BME280;32506;52.826;-1.192;2023-06-22T11:32:24;101269.34;;;35.96;36.11
46756;BME280;32506;52.826;-1.192;2023-06-22T11:34:50;101269.13;;;36.08;36.23
46756;BME280;32506;52.826;-1.192;2023-06-22T11:37:15;101261.78;;;36.20;35.89
46756;BME280;32506;52.826;-1.192;2023-06-22T11:39:42;101263.13;;;36.29;35.61
46756;BME280;32506;52.826;-1.192;2023-06-22T11:42:08;101251.03;;;36.41;35.20
46756;BME280;32506;52.826;-1.192;2023-06-22T11:44:34;101246.00;;;36.51;34.90
46756;BME280;32506;52.826;-1.192;2023-06-22T11:46:59;101242.91;;;36.59;35.34
46756;BME280;32506;52.826;-1.192;2023-06-22T11:49:26;101244.25;;;36.69;35.21
46756;BME280;32506;52.826;-1.192;2023-06-22T11:51:52;101240.00;;;36.79;34.28
46756;BME280;32506;52.826;-1.192;2023-06-22T11:54:17;101238.94;;;36.87;34.54
46756;BME280;32506;52.826;-1.192;2023-06-22T11:56:43;101247.03;;;36.96;34.16
46756;BME280;32506;52.826;-1.192;2023-06-22T11:59:08;101247.91;;;37.04;34.25
46756;BME280;32506;52.826;-1.192;2023-06-22T12:01:34;101244.81;;;37.13;34.40
46756;BME280;32506;52.826;-1.192;2023-06-22T12:03:59;101238.53;;;37.19;34.02
46756;BME280;32506;52.826;-1.192;2023-06-22T12:06:25;101233.03;;;37.26;34.26
46756;BME280;32506;52.826;-1.192;2023-06-22T12:08:50;101240.31;;;37.35;34.17
46756;BME280;32506;52.826;-1.192;2023-06-22T12:11:15;101240.41;;;37.42;33.77
46756;BME280;32506;52.826;-1.192;2023-06-22T12:13:41;101236.91;;;37.49;33.52
46756;BME280;32506;52.826;-1.192;2023-06-22T12:16:06;101237.78;;;37.56;33.88
46756;BME280;32506;52.826;-1.192;2023-06-22T12:18:32;101235.03;;;37.64;33.36
46756;BME280;32506;52.826;-1.192;2023-06-22T12:20:58;101230.34;;;37.71;33.32
46756;BME280;32506;52.826;-1.192;2023-06-22T12:23:23;101231.59;;;37.77;33.02
46756;BME280;32506;52.826;-1.192;2023-06-22T12:25:49;101232.88;;;37.84;33.08
46756;BME280;32506;52.826;-1.192;2023-06-22T12:28:14;101237.69;;;37.90;33.44
46756;BME280;32506;52.826;-1.192;2023-06-22T12:30:40;101229.38;;;37.98;32.95
46756;BME280;32506;52.826;-1.192;2023-06-22T12:33:05;101234.22;;;38.04;32.81
46756;BME280;32506;52.826;-1.192;2023-06-22T12:35:30;101227.88;;;38.11;32.52
46756;BME280;32506;52.826;-1.192;2023-06-22T12:37:56;101234.72;;;38.17;32.39
46756;BME280;32506;52.826;-1.192;2023-06-22T12:40:21;101224.44;;;38.25;32.25
46756;BME280;32506;52.826;-1.192;2023-06-22T12:42:47;101226.47;;;38.32;32.00
46756;BME280;32506;52.826;-1.192;2023-06-22T12:45:12;101227.31;;;38.39;32.02